createdAt,value
2022-09-07T00:00:15.266Z,15.30
2022-09-07T00:03:18.081Z,17.03
2022-09-07T00:06:20.380Z,15.45
2022-09-07T00:09:22.612Z,14.85
2022-09-07T00:12:25.253Z,16.17
2022-09-07T00:15:27.983Z,16.05
2022-09-07T00:18:30.367Z,15.73
2022-09-07T00:21:32.867Z,17.08
2022-09-07T00:24:35.344Z,16.48
2022-09-07T00:27:37.591Z,15.90
2022-09-07T00:30:43.055Z,15.70
2022-09-07T00:33:46.332Z,15.07
2022-09-07T00:36:48.500Z,15.30
2022-09-07T00:39:51.147Z,15.35
2022-09-07T00:42:53.425Z,15.68
2022-09-07T00:45:55.755Z,15.60
2022-09-07T00:49:00.388Z,15.73
2022-09-07T00:52:03.998Z,16.30
2022-09-07T00:55:09.355Z,16.35
2022-09-07T00:58:11.899Z,17.20
2022-09-07T01:01:14.684Z,16.40
2022-09-07T01:04:17.634Z,16.37
2022-09-07T01:07:21.380Z,17.00
2022-09-07T01:10:33.658Z,16.05
2022-09-07T01:13:36.366Z,15.93
2022-09-07T01:16:53.723Z,17.02
2022-09-07T01:20:07.824Z,18.20
2022-09-07T01:23:36.365Z,15.77
2022-09-07T01:26:47.672Z,17.35
2022-09-07T01:30:02.930Z,16.58
2022-09-07T01:33:17.298Z,16.80
2022-09-07T01:36:31.758Z,16.03
2022-09-07T01:39:57.328Z,16.60
2022-09-07T01:43:09.621Z,16.60
2022-09-07T01:46:32.949Z,15.98
2022-09-07T01:49:46.308Z,16.33
2022-09-07T01:53:01.689Z,16.13
2022-09-07T01:56:15.880Z,16.30
2022-09-07T01:59:24.635Z,15.93
2022-09-07T02:02:31.244Z,16.58
2022-09-07T02:05:52.789Z,16.95
2022-09-07T02:09:07.356Z,16.60
2022-09-07T02:12:35.026Z,16.58
2022-09-07T02:16:06.868Z,16.75
2022-09-07T02:19:11.994Z,15.90
2022-09-07T02:22:16.944Z,18.27
2022-09-07T02:25:27.687Z,15.70
2022-09-07T02:28:35.101Z,14.70
2022-09-07T02:31:37.362Z,15.15
2022-09-07T02:34:39.828Z,15.43
2022-09-07T02:37:42.807Z,15.93
2022-09-07T02:40:53.884Z,16.03
2022-09-07T02:43:56.894Z,15.38
2022-09-07T02:47:17.574Z,15.93
2022-09-07T02:50:47.497Z,16.88
2022-09-07T02:54:06.342Z,16.98
2022-09-07T02:57:47.070Z,16.03
2022-09-07T03:00:54.285Z,17.00
2022-09-07T03:04:07.328Z,16.67
2022-09-07T03:07:15.594Z,17.98
2022-09-07T03:10:18.313Z,17.77
2022-09-07T03:13:28.927Z,16.73
2022-09-07T03:16:31.123Z,18.05
2022-09-07T03:19:33.377Z,16.23
2022-09-07T03:22:35.636Z,17.00
2022-09-07T03:25:38.555Z,17.70
2022-09-07T03:28:40.775Z,17.47
2022-09-07T03:31:43.194Z,18.23
2022-09-07T03:34:45.497Z,17.33
2022-09-07T03:37:47.721Z,17.10
2022-09-07T03:41:04.038Z,18.58
2022-09-07T03:44:07.628Z,18.87
2022-09-07T03:47:09.790Z,18.85
2022-09-07T03:50:12.102Z,18.60
2022-09-07T03:53:14.317Z,17.95
2022-09-07T03:56:19.416Z,17.85
2022-09-07T03:59:21.946Z,17.90
2022-09-07T04:02:24.213Z,19.10
2022-09-07T04:05:26.447Z,18.92
2022-09-07T04:08:29.816Z,18.58
2022-09-07T04:11:32.204Z,19.30
2022-09-07T04:14:34.465Z,19.77
2022-09-07T04:17:36.641Z,19.63
2022-09-07T04:20:38.875Z,18.73
2022-09-07T04:23:41.864Z,17.90
2022-09-07T04:26:44.752Z,17.83
2022-09-07T04:29:47.656Z,17.70
2022-09-07T04:32:49.938Z,18.15
2022-09-07T04:35:52.181Z,18.67
2022-09-07T04:39:00.040Z,17.73
2022-09-07T04:42:02.251Z,18.10
2022-09-07T04:45:05.273Z,18.57
2022-09-07T04:48:07.488Z,20.05
2022-09-07T04:51:10.898Z,19.38
2022-09-07T04:54:13.154Z,17.88
2022-09-07T04:57:15.405Z,18.48
2022-09-07T05:00:17.929Z,17.90
2022-09-07T05:03:20.449Z,17.80
2022-09-07T05:06:23.141Z,17.60
2022-09-07T05:09:25.385Z,19.13
2022-09-07T05:12:27.642Z,18.75
2022-09-07T05:15:30.524Z,18.00
2022-09-07T05:18:34.131Z,17.50
2022-09-07T05:21:36.427Z,17.73
2022-09-07T05:24:38.661Z,17.05
2022-09-07T05:27:40.838Z,18.08
2022-09-07T05:37:27.767Z,16.65
2022-09-07T05:40:37.209Z,19.30
2022-09-07T05:47:04.660Z,13.40
2022-09-07T05:50:11.526Z,11.60
2022-09-07T05:53:13.872Z,10.40
2022-09-07T05:56:16.395Z,9.63
2022-09-07T05:59:18.684Z,8.70
2022-09-07T06:02:21.153Z,9.27
2022-09-07T06:05:23.510Z,9.40
2022-09-07T06:08:26.593Z,9.43
2022-09-07T06:11:28.862Z,8.60
2022-09-07T06:14:32.206Z,9.05
2022-09-07T06:18:06.454Z,8.63
2022-09-07T06:21:13.795Z,8.90
2022-09-07T06:24:16.006Z,7.70
2022-09-07T06:27:18.225Z,8.07
2022-09-07T06:30:21.269Z,8.30
2022-09-07T06:33:23.443Z,7.90
2022-09-07T06:36:27.893Z,8.10
2022-09-07T06:39:30.116Z,7.93
2022-09-07T06:42:32.343Z,7.90
2022-09-07T06:45:34.628Z,7.68
2022-09-07T06:48:40.465Z,7.60
2022-09-07T06:51:44.852Z,7.28
2022-09-07T06:55:02.387Z,7.22
2022-09-07T06:58:04.709Z,6.72
2022-09-07T07:01:11.064Z,7.22
2022-09-07T07:04:14.131Z,6.70
2022-09-07T07:07:16.473Z,6.68
2022-09-07T07:10:23.621Z,7.30
2022-09-07T07:13:27.513Z,6.63
2022-09-07T07:16:29.840Z,7.15
2022-09-07T07:19:32.287Z,6.90
2022-09-07T07:22:49.703Z,7.43
2022-09-07T07:25:51.984Z,7.07
2022-09-07T07:32:02.458Z,6.80
2022-09-07T07:35:07.530Z,6.73
2022-09-07T07:48:17.633Z,7.10
2022-09-07T07:51:20.174Z,6.93
2022-09-07T07:54:22.963Z,6.90
2022-09-07T07:57:25.164Z,6.93
2022-09-07T08:00:50.902Z,7.15
2022-09-07T08:03:49.761Z,6.90
2022-09-07T08:06:52.451Z,6.10
2022-09-07T08:09:54.600Z,6.57
2022-09-07T08:12:57.043Z,6.78
2022-09-07T08:15:59.436Z,6.63
2022-09-07T08:19:02.009Z,6.82
2022-09-07T08:22:04.171Z,7.00
2022-09-07T08:25:07.299Z,6.53
2022-09-07T08:28:09.391Z,6.63
2022-09-07T08:31:14.139Z,6.60
2022-09-07T08:34:16.927Z,6.53
2022-09-07T08:37:19.091Z,6.07
2022-09-07T08:40:21.324Z,6.50
2022-09-07T08:43:57.198Z,6.20
2022-09-07T08:47:04.360Z,6.60
2022-09-07T08:50:11.698Z,5.65
2022-09-07T08:53:19.600Z,5.90
2022-09-07T08:56:34.665Z,5.80
2022-09-07T08:59:50.201Z,5.50
2022-09-07T09:06:22.679Z,5.40
2022-09-07T09:09:34.880Z,5.50
2022-09-07T09:13:04.916Z,5.40
2022-09-07T09:16:18.764Z,5.45
2022-09-07T09:19:30.160Z,5.57
2022-09-07T09:22:32.382Z,5.45
2022-09-07T09:25:35.702Z,5.30
2022-09-07T09:28:39.128Z,5.85
2022-09-07T09:31:42.084Z,5.72
2022-09-07T09:35:00.721Z,5.82
2022-09-07T09:38:03.759Z,5.97
2022-09-07T09:41:10.377Z,6.00
2022-09-07T09:44:15.881Z,5.65
2022-09-07T09:47:32.712Z,6.13
2022-09-07T09:54:17.125Z,6.57
2022-09-07T09:59:04.727Z,6.27
2022-09-07T10:01:35.459Z,6.00
2022-09-07T10:04:38.241Z,6.22
2022-09-07T10:07:40.408Z,6.78
2022-09-07T10:10:54.152Z,6.15
2022-09-07T10:13:57.924Z,6.23
2022-09-07T10:17:02.089Z,6.30
2022-09-07T10:20:16.125Z,6.22
2022-09-07T10:23:23.703Z,6.72
2022-09-07T10:26:32.073Z,6.88
2022-09-07T10:29:37.260Z,7.00
2022-09-07T10:32:42.320Z,7.10
2022-09-07T10:35:54.638Z,6.93
2022-09-07T10:39:27.069Z,6.43
2022-09-07T10:42:31.919Z,6.18
2022-09-07T10:45:51.250Z,6.70
2022-09-07T10:49:15.385Z,6.38
2022-09-07T10:52:38.850Z,7.03
2022-09-07T10:55:43.188Z,6.30
2022-09-07T10:59:02.152Z,6.38
2022-09-07T11:02:24.381Z,6.60
2022-09-07T11:05:38.440Z,6.38
2022-09-07T11:09:19.558Z,6.07
2022-09-07T11:12:28.245Z,6.40
2022-09-07T11:15:37.787Z,6.80
2022-09-07T11:18:45.929Z,6.40
2022-09-07T11:22:25.500Z,6.43
2022-09-07T11:25:54.702Z,6.70
2022-09-07T11:32:27.918Z,6.07
2022-09-07T11:35:42.528Z,6.57
2022-09-07T11:39:05.157Z,6.18
2022-09-07T11:42:43.491Z,6.68
2022-09-07T11:45:49.910Z,7.07
2022-09-07T11:48:56.174Z,7.05
2022-09-07T11:52:08.999Z,7.40
2022-09-07T11:55:25.830Z,7.10
2022-09-07T11:58:45.743Z,8.00
2022-09-07T12:02:01.340Z,7.13
2022-09-07T12:05:37.250Z,8.00
2022-09-07T12:08:43.163Z,9.53
2022-09-07T12:12:18.977Z,9.07
2022-09-07T12:15:24.900Z,8.85
2022-09-07T12:19:07.949Z,10.70
2022-09-07T12:22:20.494Z,10.23
2022-09-07T12:25:23.397Z,9.83
2022-09-07T12:28:25.539Z,10.10
2022-09-07T12:35:33.954Z,9.82
2022-09-07T12:39:06.230Z,9.98
2022-09-07T12:45:31.020Z,10.18
2022-09-07T12:49:06.767Z,9.85
2022-09-07T12:52:33.680Z,9.85
2022-09-07T12:56:19.179Z,9.80
2022-09-07T12:59:55.511Z,9.67
2022-09-07T13:03:04.809Z,9.25
2022-09-07T13:09:56.645Z,9.40
2022-09-07T13:20:11.171Z,10.60
2022-09-07T13:23:20.886Z,10.65
2022-09-07T13:26:58.849Z,10.48
2022-09-07T13:30:05.146Z,10.85
2022-09-07T13:33:26.040Z,10.77
2022-09-07T13:36:40.461Z,11.20
2022-09-07T13:39:46.611Z,11.20
2022-09-07T13:42:50.369Z,11.88
2022-09-07T13:45:53.446Z,12.00
2022-09-07T13:49:02.858Z,12.50
2022-09-07T13:52:33.791Z,12.38
2022-09-07T13:55:46.911Z,12.90
2022-09-07T13:58:52.198Z,13.48
2022-09-07T14:01:54.995Z,13.65
2022-09-07T14:05:00.643Z,13.70
2022-09-07T14:08:03.480Z,13.13
2022-09-07T14:11:19.186Z,14.90
2022-09-07T14:14:23.819Z,14.40
2022-09-07T14:17:27.964Z,15.25
2022-09-07T14:20:30.622Z,15.97
2022-09-07T14:23:35.843Z,16.38
2022-09-07T14:26:49.181Z,16.02
2022-09-07T14:29:57.911Z,17.23
2022-09-07T14:33:20.407Z,16.60
2022-09-07T14:36:46.112Z,17.13
2022-09-07T14:39:49.900Z,16.58
2022-09-07T14:42:54.294Z,16.30
2022-09-07T14:46:13.762Z,16.00
2022-09-07T14:49:20.631Z,16.63
2022-09-07T14:52:33.332Z,16.93
2022-09-07T14:55:44.764Z,16.60
2022-09-07T14:58:48.957Z,16.38
2022-09-07T15:02:09.483Z,16.63
2022-09-07T15:05:23.225Z,17.67
2022-09-07T15:08:46.336Z,16.73
2022-09-07T15:11:49.352Z,16.48
2022-09-07T15:14:51.569Z,16.52
2022-09-07T15:17:55.758Z,15.20
2022-09-07T15:20:58.027Z,15.95
2022-09-07T15:24:04.033Z,15.93
2022-09-07T15:27:24.249Z,15.55
2022-09-07T15:30:27.326Z,15.38
2022-09-07T15:33:31.414Z,14.88
2022-09-07T15:36:33.680Z,15.55
2022-09-07T15:39:36.445Z,15.07
2022-09-07T15:46:03.789Z,14.48
2022-09-07T15:49:06.177Z,14.13
2022-09-07T15:52:09.039Z,13.95
2022-09-07T15:55:11.758Z,14.20
2022-09-07T15:58:13.893Z,13.60
2022-09-07T16:04:38.824Z,13.23
2022-09-07T16:11:35.196Z,14.83
2022-09-07T16:14:37.621Z,14.23
2022-09-07T16:17:47.234Z,13.15
2022-09-07T16:20:52.614Z,13.18
2022-09-07T16:23:55.687Z,10.98
2022-09-07T16:26:58.110Z,11.57
2022-09-07T16:30:00.434Z,11.02
2022-09-07T16:33:02.686Z,11.00
2022-09-07T16:36:10.828Z,11.18
2022-09-07T16:39:13.019Z,11.38
2022-09-07T16:42:15.155Z,11.77
2022-09-07T16:48:39.812Z,13.73
2022-09-07T16:51:42.120Z,12.05
2022-09-07T16:54:44.379Z,13.73
2022-09-07T17:01:11.643Z,11.60
2022-09-07T17:04:14.649Z,11.10
2022-09-07T17:07:17.343Z,10.45
2022-09-07T17:10:19.497Z,11.05
2022-09-07T17:13:22.459Z,11.80
2022-09-07T17:16:27.643Z,11.32
2022-09-07T17:19:30.298Z,11.30
2022-09-07T17:22:32.741Z,11.27
2022-09-07T17:25:34.996Z,11.15
2022-09-07T17:28:37.955Z,11.00
2022-09-07T17:35:02.977Z,11.73
2022-09-07T17:41:34.783Z,12.68
2022-09-07T17:44:38.391Z,11.33
2022-09-07T17:47:41.455Z,11.32
2022-09-07T17:50:43.916Z,12.38
2022-09-07T17:53:46.406Z,12.65
2022-09-07T17:56:48.689Z,13.40
2022-09-07T18:03:14.717Z,13.93
2022-09-07T18:06:18.203Z,13.90
2022-09-07T18:09:24.455Z,13.90
2022-09-07T18:12:29.754Z,14.88
2022-09-07T18:15:32.421Z,14.93
2022-09-07T18:18:34.571Z,16.23
2022-09-07T18:21:38.195Z,15.30
2022-09-07T18:24:40.805Z,14.52
2022-09-07T18:29:03.071Z,13.93
2022-09-07T18:31:14.413Z,14.30
2022-09-07T18:34:17.042Z,14.50
2022-09-07T18:37:19.746Z,14.63
2022-09-07T18:40:23.446Z,15.07
2022-09-07T18:43:27.967Z,15.73
2022-09-07T18:46:30.931Z,15.53
2022-09-07T18:49:33.561Z,15.73
2022-09-07T18:52:52.555Z,16.70
2022-09-07T18:56:21.706Z,15.23
2022-09-07T18:59:24.301Z,13.70
2022-09-07T19:02:27.054Z,14.60
2022-09-07T19:08:54.491Z,15.38
2022-09-07T19:11:57.217Z,16.67
2022-09-07T19:14:59.739Z,15.63
2022-09-07T19:18:04.978Z,17.63
2022-09-07T19:21:12.314Z,16.58
2022-09-07T19:24:18.635Z,16.90
2022-09-07T19:27:21.213Z,17.40
2022-09-07T19:30:24.210Z,17.85
2022-09-07T19:33:26.956Z,17.60
2022-09-07T19:36:34.835Z,17.73
2022-09-07T19:39:37.812Z,16.33
2022-09-07T19:42:40.606Z,15.90
2022-09-07T19:45:46.979Z,16.67
2022-09-07T19:48:49.913Z,16.43
2022-09-07T19:51:52.787Z,16.45
2022-09-07T19:54:57.497Z,17.85
2022-09-07T19:58:06.841Z,18.42
2022-09-07T20:01:12.440Z,20.98
2022-09-07T20:04:20.431Z,19.73
2022-09-07T20:07:23.881Z,21.10
2022-09-07T20:10:26.309Z,21.45
2022-09-07T20:13:28.817Z,20.70
2022-09-07T20:16:31.622Z,20.17
2022-09-07T20:19:34.346Z,21.20
2022-09-07T20:22:36.629Z,20.73
2022-09-07T20:25:39.008Z,19.98
2022-09-07T20:28:41.811Z,20.13
2022-09-07T20:31:44.350Z,20.05
2022-09-07T20:34:46.791Z,20.43
2022-09-07T20:37:49.052Z,21.40
2022-09-07T20:40:55.923Z,20.90
2022-09-07T20:44:00.168Z,20.90
2022-09-07T20:47:02.877Z,21.13
2022-09-07T20:50:05.521Z,20.70
2022-09-07T20:53:07.981Z,22.83
2022-09-07T20:56:19.001Z,22.75
2022-09-07T20:59:21.859Z,22.10
2022-09-07T21:02:24.122Z,22.50
2022-09-07T21:05:26.308Z,22.40
2022-09-07T21:08:28.528Z,23.45
2022-09-07T21:11:32.897Z,23.05
2022-09-07T21:14:35.634Z,22.10
2022-09-07T21:17:38.836Z,22.38
2022-09-07T21:20:41.582Z,21.57
2022-09-07T21:23:43.820Z,21.92
2022-09-07T21:26:46.454Z,22.67
2022-09-07T21:29:48.603Z,21.75
2022-09-07T21:32:51.667Z,22.67
2022-09-07T21:35:54.271Z,21.20
2022-09-07T21:38:56.763Z,23.08
2022-09-07T21:41:58.883Z,24.95
2022-09-07T21:45:01.109Z,25.30
2022-09-07T21:48:03.452Z,26.33
2022-09-07T21:51:05.839Z,26.87
2022-09-07T21:54:08.271Z,26.45
2022-09-07T21:57:11.088Z,26.77
2022-09-07T22:00:13.937Z,27.08
2022-09-07T22:03:16.111Z,28.30
2022-09-07T22:06:18.501Z,27.43
2022-09-07T22:09:20.874Z,27.40
2022-09-07T22:12:23.119Z,28.13
2022-09-07T22:15:25.344Z,28.15
2022-09-07T22:18:30.302Z,27.20
2022-09-07T22:21:33.581Z,27.43
2022-09-07T22:24:36.026Z,27.83
2022-09-07T22:27:38.411Z,26.02
2022-09-07T22:30:40.573Z,25.70
2022-09-07T22:33:43.355Z,27.13
2022-09-07T22:36:45.880Z,28.93
2022-09-07T22:39:48.150Z,30.02
2022-09-07T22:42:53.131Z,30.40
2022-09-07T22:45:55.266Z,28.77
2022-09-07T22:48:58.397Z,31.05
2022-09-07T22:52:00.579Z,31.67
2022-09-07T22:55:03.285Z,29.98
2022-09-07T22:58:05.420Z,28.92
2022-09-07T23:01:07.567Z,29.25
2022-09-07T23:04:10.943Z,28.88
2022-09-07T23:07:13.180Z,29.57
2022-09-07T23:10:15.383Z,31.63
2022-09-07T23:13:17.706Z,31.05
2022-09-07T23:16:20.605Z,32.38
2022-09-07T23:19:22.860Z,30.73
2022-09-07T23:22:25.285Z,32.60
2022-09-07T23:25:28.614Z,32.75
2022-09-07T23:28:31.615Z,31.70
2022-09-07T23:31:35.070Z,31.65
2022-09-07T23:34:37.330Z,32.47
2022-09-07T23:37:39.528Z,30.67
2022-09-07T23:40:41.836Z,32.58
2022-09-07T23:43:44.267Z,33.20
2022-09-07T23:46:46.531Z,34.33
2022-09-07T23:49:48.698Z,33.85
2022-09-07T23:52:51.292Z,35.50
2022-09-07T23:55:53.538Z,34.75
2022-09-07T23:58:55.755Z,34.65
